sensor_id;sensor_type;location;lat;lon;timestamp;pressure;altitude;pressure_sealevel;temperature;humidity
18755;BME280;35061;47.664;9.166;2023-12-29T00:00:14;101913.29;;;5.08;100.00
18755;BME280;35061;47.664;9.166;2023-12-29T00:02:42;101895.37;;;5.11;100.00
18755;BME280;35061;47.664;9.166;2023-12-29T00:05:10;101902.20;;;5.17;100.00
18755;BME280;35061;47.664;9.166;2023-12-29T00:07:38;101898.09;;;5.22;100.00
18755;BME280;35061;47.664;9.166;2023-12-29T00:10:07;101891.12;;;5.26;100.00
18755;BME280;35061;47.664;9.166;2023-12-29T00:12:35;101885.76;;;5.32;100.00
18755;BME280;35061;47.664;9.166;2023-12-29T00:15:03;101879.19;;;5.35;100.00
18755;BME280;35061;47.664;9.166;2023-12-29T00:17:31;101871.86;;;5.38;100.00
18755;BME280;35061;47.664;9.166;2023-12-29T00:20:00;101862.87;;;5.39;100.00
18755;BME280;35061;47.664;9.166;2023-12-29T00:22:28;101866.46;;;5.43;100.00
18755;BME280;35061;47.664;9.166;2023-12-29T00:24:56;101865.62;;;5.47;100.00
18755;BME280;35061;47.664;9.166;2023-12-29T00:27:24;101880.16;;;5.49;100.00
18755;BME280;35061;47.664;9.166;2023-12-29T00:29:52;101861.88;;;5.50;100.00
18755;BME280;35061;47.664;9.166;2023-12-29T00:32:20;101865.91;;;5.52;100.00
18755;BME280;35061;47.664;9.166;2023-12-29T00:34:48;101850.05;;;5.55;100.00
18755;BME280;35061;47.664;9.166;2023-12-29T00:37:17;101852.83;;;5.58;100.00
18755;BME280;35061;47.664;9.166;2023-12-29T00:39:45;101847.04;;;5.62;100.00
18755;BME280;35061;47.664;9.166;2023-12-29T00:42:13;101841.32;;;5.66;100.00
18755;BME280;35061;47.664;9.166;2023-12-29T00:44:41;101840.89;;;5.67;100.00
18755;BME280;35061;47.664;9.166;2023-12-29T00:47:09;101831.41;;;5.74;100.00
18755;BME280;35061;47.664;9.166;2023-12-29T00:49:40;101833.37;;;5.77;100.00
18755;BME280;35061;47.664;9.166;2023-12-29T00:52:08;101832.12;;;5.78;100.00
18755;BME280;35061;47.664;9.166;2023-12-29T00:54:36;101825.16;;;5.83;100.00
18755;BME280;35061;47.664;9.166;2023-12-29T00:57:05;101818.23;;;5.84;100.00
18755;BME280;35061;47.664;9.166;2023-12-29T00:59:37;101831.21;;;5.85;100.00
18755;BME280;35061;47.664;9.166;2023-12-29T01:02:05;101838.51;;;5.86;100.00
18755;BME280;35061;47.664;9.166;2023-12-29T01:04:39;101831.15;;;5.89;100.00
18755;BME280;35061;47.664;9.166;2023-12-29T01:07:08;101837.63;;;5.89;100.00
18755;BME280;35061;47.664;9.166;2023-12-29T01:09:39;101842.01;;;5.94;100.00
18755;BME280;35061;47.664;9.166;2023-12-29T01:12:10;101823.73;;;5.95;100.00
18755;BME280;35061;47.664;9.166;2023-12-29T01:14:38;101825.33;;;5.96;100.00
18755;BME280;35061;47.664;9.166;2023-12-29T01:17:06;101834.65;;;5.96;100.00
18755;BME280;35061;47.664;9.166;2023-12-29T01:19:35;101845.14;;;5.99;100.00
18755;BME280;35061;47.664;9.166;2023-12-29T01:22:03;101838.34;;;5.93;100.00
18755;BME280;35061;47.664;9.166;2023-12-29T01:24:31;101836.74;;;5.92;100.00
18755;BME280;35061;47.664;9.166;2023-12-29T01:27:11;101823.37;;;5.93;100.00
18755;BME280;35061;47.664;9.166;2023-12-29T01:29:39;101840.47;;;5.89;100.00
18755;BME280;35061;47.664;9.166;2023-12-29T01:32:07;101814.18;;;5.85;100.00
18755;BME280;35061;47.664;9.166;2023-12-29T01:34:38;101833.77;;;5.79;100.00
18755;BME280;35061;47.664;9.166;2023-12-29T01:37:06;101827.68;;;5.77;100.00
18755;BME280;35061;47.664;9.166;2023-12-29T01:39:37;101829.80;;;5.73;100.00
18755;BME280;35061;47.664;9.166;2023-12-29T01:42:05;101824.18;;;5.69;100.00
18755;BME280;35061;47.664;9.166;2023-12-29T01:44:36;101831.12;;;5.68;100.00
18755;BME280;35061;47.664;9.166;2023-12-29T01:47:10;101832.42;;;5.64;100.00
18755;BME280;35061;47.664;9.166;2023-12-29T01:49:40;101828.40;;;5.61;100.00
18755;BME280;35061;47.664;9.166;2023-12-29T01:52:08;101834.09;;;5.61;100.00
18755;BME280;35061;47.664;9.166;2023-12-29T01:54:36;101832.12;;;5.58;100.00
18755;BME280;35061;47.664;9.166;2023-12-29T01:57:08;101837.43;;;5.56;100.00
18755;BME280;35061;47.664;9.166;2023-12-29T01:59:37;101829.77;;;5.53;100.00
18755;BME280;35061;47.664;9.166;2023-12-29T02:02:06;101831.87;;;5.49;100.00
18755;BME280;35061;47.664;9.166;2023-12-29T02:04:34;101841.65;;;5.48;100.00
18755;BME280;35061;47.664;9.166;2023-12-29T02:07:04;101837.27;;;5.43;100.00
18755;BME280;35061;47.664;9.166;2023-12-29T02:09:32;101834.05;;;5.41;100.00
18755;BME280;35061;47.664;9.166;2023-12-29T02:12:02;101831.64;;;5.39;100.00
18755;BME280;35061;47.664;9.166;2023-12-29T02:14:30;101833.30;;;5.37;100.00
18755;BME280;35061;47.664;9.166;2023-12-29T02:19:49;101836.15;;;5.37;100.00
18755;BME280;35061;47.664;9.166;2023-12-29T02:22:18;101818.36;;;5.33;100.00
18755;BME280;35061;47.664;9.166;2023-12-29T02:24:46;101832.12;;;5.34;100.00
18755;BME280;35061;47.664;9.166;2023-12-29T02:30:18;101816.76;;;5.31;100.00
18755;BME280;35061;47.664;9.166;2023-12-29T02:32:49;101805.38;;;5.31;100.00
18755;BME280;35061;47.664;9.166;2023-12-29T02:35:24;101815.19;;;5.27;100.00
18755;BME280;35061;47.664;9.166;2023-12-29T02:37:56;101814.02;;;5.24;100.00
18755;BME280;35061;47.664;9.166;2023-12-29T02:40:25;101808.42;;;5.21;100.00
18755;BME280;35061;47.664;9.166;2023-12-29T02:42:53;101810.52;;;5.16;100.00
18755;BME280;35061;47.664;9.166;2023-12-29T02:45:22;101808.52;;;5.13;100.00
18755;BME280;35061;47.664;9.166;2023-12-29T02:47:50;101824.02;;;5.09;100.00
18755;BME280;35061;47.664;9.166;2023-12-29T02:50:18;101806.98;;;5.09;100.00
18755;BME280;35061;47.664;9.166;2023-12-29T02:52:47;101825.27;;;5.08;100.00
18755;BME280;35061;47.664;9.166;2023-12-29T02:55:16;101805.80;;;5.06;100.00
18755;BME280;35061;47.664;9.166;2023-12-29T02:57:45;101795.67;;;5.05;100.00
18755;BME280;35061;47.664;9.166;2023-12-29T03:00:13;101809.50;;;5.03;100.00
18755;BME280;35061;47.664;9.166;2023-12-29T03:02:41;101815.62;;;5.01;100.00
18755;BME280;35061;47.664;9.166;2023-12-29T03:05:09;101805.09;;;5.02;100.00
18755;BME280;35061;47.664;9.166;2023-12-29T03:07:37;101801.78;;;5.03;100.00
18755;BME280;35061;47.664;9.166;2023-12-29T03:10:05;101799.33;;;5.06;100.00
18755;BME280;35061;47.664;9.166;2023-12-29T03:12:34;101799.27;;;5.09;100.00
18755;BME280;35061;47.664;9.166;2023-12-29T03:15:02;101786.67;;;5.10;100.00
18755;BME280;35061;47.664;9.166;2023-12-29T03:17:31;101794.30;;;5.17;100.00
18755;BME280;35061;47.664;9.166;2023-12-29T03:19:59;101799.10;;;5.20;100.00
18755;BME280;35061;47.664;9.166;2023-12-29T03:22:27;101784.38;;;5.25;100.00
18755;BME280;35061;47.664;9.166;2023-12-29T03:24:55;101786.74;;;5.30;100.00
18755;BME280;35061;47.664;9.166;2023-12-29T03:27:23;101796.88;;;5.31;100.00
18755;BME280;35061;47.664;9.166;2023-12-29T03:29:51;101787.46;;;5.35;100.00
18755;BME280;35061;47.664;9.166;2023-12-29T03:32:19;101776.05;;;5.38;100.00
18755;BME280;35061;47.664;9.166;2023-12-29T03:34:47;101780.43;;;5.43;100.00
18755;BME280;35061;47.664;9.166;2023-12-29T03:37:15;101775.91;;;5.45;100.00
18755;BME280;35061;47.664;9.166;2023-12-29T03:39:43;101778.34;;;5.47;100.00
18755;BME280;35061;47.664;9.166;2023-12-29T03:42:11;101779.13;;;5.48;100.00
18755;BME280;35061;47.664;9.166;2023-12-29T03:44:39;101790.50;;;5.48;100.00
18755;BME280;35061;47.664;9.166;2023-12-29T03:47:08;101784.81;;;5.48;100.00
18755;BME280;35061;47.664;9.166;2023-12-29T03:49:36;101787.23;;;5.49;100.00
18755;BME280;35061;47.664;9.166;2023-12-29T03:52:04;101794.06;;;5.52;100.00
18755;BME280;35061;47.664;9.166;2023-12-29T03:54:32;101795.30;;;5.51;100.00
18755;BME280;35061;47.664;9.166;2023-12-29T03:57:00;101788.84;;;5.50;100.00
18755;BME280;35061;47.664;9.166;2023-12-29T03:59:28;101806.66;;;5.51;100.00
18755;BME280;35061;47.664;9.166;2023-12-29T04:01:56;101779.41;;;5.53;100.00
18755;BME280;35061;47.664;9.166;2023-12-29T04:04:24;101779.41;;;5.53;100.00
18755;BME280;35061;47.664;9.166;2023-12-29T04:06:52;101777.39;;;5.54;100.00
18755;BME280;35061;47.664;9.166;2023-12-29T04:09:21;101783.44;;;5.56;100.00
18755;BME280;35061;47.664;9.166;2023-12-29T04:11:49;101778.53;;;5.56;100.00
18755;BME280;35061;47.664;9.166;2023-12-29T04:14:17;101782.20;;;5.57;100.00
18755;BME280;35061;47.664;9.166;2023-12-29T04:16:45;101785.40;;;5.59;100.00
18755;BME280;35061;47.664;9.166;2023-12-29T04:19:13;101779.29;;;5.61;100.00
18755;BME280;35061;47.664;9.166;2023-12-29T04:21:42;101779.65;;;5.63;100.00
18755;BME280;35061;47.664;9.166;2023-12-29T04:24:10;101780.89;;;5.62;100.00
18755;BME280;35061;47.664;9.166;2023-12-29T04:26:38;101783.66;;;5.65;100.00
18755;BME280;35061;47.664;9.166;2023-12-29T04:29:06;101790.14;;;5.66;100.00
18755;BME280;35061;47.664;9.166;2023-12-29T04:31:34;101793.34;;;5.68;100.00
18755;BME280;35061;47.664;9.166;2023-12-29T04:34:02;101788.48;;;5.68;100.00
18755;BME280;35061;47.664;9.166;2023-12-29T04:36:30;101792.13;;;5.69;100.00
18755;BME280;35061;47.664;9.166;2023-12-29T04:38:58;101786.80;;;5.71;100.00
18755;BME280;35061;47.664;9.166;2023-12-29T04:41:26;101773.86;;;5.70;100.00
18755;BME280;35061;47.664;9.166;2023-12-29T04:43:54;101768.10;;;5.73;100.00
18755;BME280;35061;47.664;9.166;2023-12-29T04:46:22;101771.30;;;5.76;100.00
18755;BME280;35061;47.664;9.166;2023-12-29T04:48:50;101770.42;;;5.79;100.00
18755;BME280;35061;47.664;9.166;2023-12-29T04:51:19;101767.16;;;5.80;100.00
18755;BME280;35061;47.664;9.166;2023-12-29T04:53:47;101765.55;;;5.79;100.00
18755;BME280;35061;47.664;9.166;2023-12-29T04:56:15;101775.23;;;5.82;100.00
18755;BME280;35061;47.664;9.166;2023-12-29T04:58:43;101781.64;;;5.86;100.00
18755;BME280;35061;47.664;9.166;2023-12-29T05:01:11;101773.07;;;5.90;100.00
18755;BME280;35061;47.664;9.166;2023-12-29T05:03:39;101782.36;;;5.90;100.00
18755;BME280;35061;47.664;9.166;2023-12-29T05:06:07;101777.06;;;5.92;100.00
18755;BME280;35061;47.664;9.166;2023-12-29T05:08:35;101777.13;;;5.89;100.00
18755;BME280;35061;47.664;9.166;2023-12-29T05:11:03;101778.63;;;5.93;100.00
18755;BME280;35061;47.664;9.166;2023-12-29T05:13:31;101785.92;;;5.94;100.00
18755;BME280;35061;47.664;9.166;2023-12-29T05:16:00;101795.21;;;5.98;100.00
18755;BME280;35061;47.664;9.166;2023-12-29T05:18:28;101777.29;;;6.02;100.00
18755;BME280;35061;47.664;9.166;2023-12-29T05:20:57;101789.42;;;6.06;100.00
18755;BME280;35061;47.664;9.166;2023-12-29T05:23:25;101793.41;;;6.08;100.00
18755;BME280;35061;47.664;9.166;2023-12-29T05:25:57;101795.02;;;6.09;100.00
18755;BME280;35061;47.664;9.166;2023-12-29T05:28:25;101804.73;;;6.12;100.00
18755;BME280;35061;47.664;9.166;2023-12-29T05:30:53;101802.21;;;6.14;100.00
18755;BME280;35061;47.664;9.166;2023-12-29T05:33:21;101801.72;;;6.19;100.00
18755;BME280;35061;47.664;9.166;2023-12-29T05:35:49;101808.59;;;6.22;100.00
18755;BME280;35061;47.664;9.166;2023-12-29T05:38:17;101814.18;;;6.25;100.00
18755;BME280;35061;47.664;9.166;2023-12-29T05:40:45;101801.13;;;6.28;100.00
18755;BME280;35061;47.664;9.166;2023-12-29T05:43:14;101809.60;;;6.32;100.00
18755;BME280;35061;47.664;9.166;2023-12-29T05:45:42;101806.75;;;6.32;100.00
18755;BME280;35061;47.664;9.166;2023-12-29T05:48:10;101806.66;;;6.35;100.00
18755;BME280;35061;47.664;9.166;2023-12-29T05:50:43;101800.51;;;6.37;100.00
18755;BME280;35061;47.664;9.166;2023-12-29T05:53:11;101811.56;;;6.35;100.00
18755;BME280;35061;47.664;9.166;2023-12-29T05:55:39;101813.88;;;6.40;100.00
18755;BME280;35061;47.664;9.166;2023-12-29T05:58:09;101815.48;;;6.41;100.00
18755;BME280;35061;47.664;9.166;2023-12-29T06:00:38;101817.38;;;6.48;100.00
18755;BME280;35061;47.664;9.166;2023-12-29T06:03:07;101821.05;;;6.48;100.00
18755;BME280;35061;47.664;9.166;2023-12-29T06:05:35;101818.46;;;6.54;100.00
18755;BME280;35061;47.664;9.166;2023-12-29T06:08:04;101806.63;;;6.55;100.00
18755;BME280;35061;47.664;9.166;2023-12-29T06:10:32;101797.23;;;6.59;100.00
18755;BME280;35061;47.664;9.166;2023-12-29T06:13:02;101800.41;;;6.61;100.00
18755;BME280;35061;47.664;9.166;2023-12-29T06:15:36;101797.92;;;6.63;100.00
18755;BME280;35061;47.664;9.166;2023-12-29T06:18:04;101799.52;;;6.64;100.00
18755;BME280;35061;47.664;9.166;2023-12-29T06:20:32;101802.38;;;6.64;100.00
18755;BME280;35061;47.664;9.166;2023-12-29T06:23:00;101812.51;;;6.65;100.00
18755;BME280;35061;47.664;9.166;2023-12-29T06:25:30;101806.39;;;6.66;100.00
18755;BME280;35061;47.664;9.166;2023-12-29T06:27:59;101804.34;;;6.67;100.00
18755;BME280;35061;47.664;9.166;2023-12-29T06:30:28;101806.75;;;6.68;100.00
18755;BME280;35061;47.664;9.166;2023-12-29T06:32:56;101811.20;;;6.69;100.00
18755;BME280;35061;47.664;9.166;2023-12-29T06:35:24;101805.41;;;6.73;100.00
18755;BME280;35061;47.664;9.166;2023-12-29T06:37:55;101803.35;;;6.74;100.00
18755;BME280;35061;47.664;9.166;2023-12-29T06:40:23;101794.39;;;6.75;100.00
18755;BME280;35061;47.664;9.166;2023-12-29T06:42:54;101797.59;;;6.77;100.00
18755;BME280;35061;47.664;9.166;2023-12-29T06:45:22;101798.41;;;6.78;100.00
18755;BME280;35061;47.664;9.166;2023-12-29T06:47:53;101792.63;;;6.81;100.00
18755;BME280;35061;47.664;9.166;2023-12-29T06:50:21;101795.83;;;6.83;100.00
18755;BME280;35061;47.664;9.166;2023-12-29T06:52:51;101796.52;;;6.88;100.00
18755;BME280;35061;47.664;9.166;2023-12-29T06:55:22;101794.03;;;6.90;100.00
18755;BME280;35061;47.664;9.166;2023-12-29T06:57:51;101799.66;;;6.93;100.00
18755;BME280;35061;47.664;9.166;2023-12-29T07:00:22;101795.93;;;6.96;100.00
18755;BME280;35061;47.664;9.166;2023-12-29T07:02:51;101801.98;;;6.98;100.00
18755;BME280;35061;47.664;9.166;2023-12-29T07:05:19;101800.31;;;7.01;100.00
18755;BME280;35061;47.664;9.166;2023-12-29T07:07:47;101803.48;;;7.03;100.00
18755;BME280;35061;47.664;9.166;2023-12-29T07:10:15;101808.29;;;7.06;100.00
18755;BME280;35061;47.664;9.166;2023-12-29T07:12:43;101803.42;;;7.07;100.00
18755;BME280;35061;47.664;9.166;2023-12-29T07:15:14;101810.25;;;7.09;100.00
18755;BME280;35061;47.664;9.166;2023-12-29T07:17:42;101800.45;;;7.10;100.00
18755;BME280;35061;47.664;9.166;2023-12-29T07:20:10;101810.16;;;7.13;100.00
18755;BME280;35061;47.664;9.166;2023-12-29T07:22:39;101806.07;;;7.14;100.00
18755;BME280;35061;47.664;9.166;2023-12-29T07:25:07;101801.52;;;7.17;100.00
18755;BME280;35061;47.664;9.166;2023-12-29T07:27:37;101807.15;;;7.20;100.00
18755;BME280;35061;47.664;9.166;2023-12-29T07:30:06;101806.69;;;7.22;100.00
18755;BME280;35061;47.664;9.166;2023-12-29T07:32:34;101803.84;;;7.22;100.00
18755;BME280;35061;47.664;9.166;2023-12-29T07:35:02;101813.55;;;7.24;100.00
18755;BME280;35061;47.664;9.166;2023-12-29T07:37:31;101806.23;;;7.23;100.00
18755;BME280;35061;47.664;9.166;2023-12-29T07:39:59;101819.24;;;7.24;100.00
18755;BME280;35061;47.664;9.166;2023-12-29T07:42:27;101822.55;;;7.23;100.00
18755;BME280;35061;47.664;9.166;2023-12-29T07:44:55;101819.15;;;7.28;100.00
18755;BME280;35061;47.664;9.166;2023-12-29T07:47:24;101801.16;;;7.31;100.00
18755;BME280;35061;47.664;9.166;2023-12-29T07:49:52;101812.48;;;7.35;100.00
18755;BME280;35061;47.664;9.166;2023-12-29T07:52:20;101812.38;;;7.38;100.00
18755;BME280;35061;47.664;9.166;2023-12-29T07:54:48;101814.34;;;7.42;100.00
18755;BME280;35061;47.664;9.166;2023-12-29T07:57:16;101823.27;;;7.44;100.00
18755;BME280;35061;47.664;9.166;2023-12-29T07:59:45;101824.87;;;7.45;100.00
18755;BME280;35061;47.664;9.166;2023-12-29T08:02:12;101831.70;;;7.47;100.00
18755;BME280;35061;47.664;9.166;2023-12-29T08:04:40;101832.85;;;7.50;100.00
18755;BME280;35061;47.664;9.166;2023-12-29T08:07:09;101830.33;;;7.52;100.00
18755;BME280;35061;47.664;9.166;2023-12-29T08:09:37;101826.63;;;7.55;100.00
18755;BME280;35061;47.664;9.166;2023-12-29T08:12:06;101824.90;;;7.58;100.00
18755;BME280;35061;47.664;9.166;2023-12-29T08:14:34;101828.14;;;7.60;100.00
18755;BME280;35061;47.664;9.166;2023-12-29T08:17:02;101822.77;;;7.62;100.00
18755;BME280;35061;47.664;9.166;2023-12-29T08:19:30;101831.24;;;7.65;100.00
18755;BME280;35061;47.664;9.166;2023-12-29T08:21:58;101830.33;;;7.68;100.00
18755;BME280;35061;47.664;9.166;2023-12-29T08:24:26;101823.37;;;7.70;100.00
18755;BME280;35061;47.664;9.166;2023-12-29T08:26:54;101831.51;;;7.71;100.00
18755;BME280;35061;47.664;9.166;2023-12-29T08:29:22;101829.41;;;7.72;100.00
18755;BME280;35061;47.664;9.166;2023-12-29T08:31:53;101824.97;;;7.71;100.00
18755;BME280;35061;47.664;9.166;2023-12-29T08:34:21;101835.70;;;7.66;100.00
18755;BME280;35061;47.664;9.166;2023-12-29T08:36:52;101834.52;;;7.64;100.00
18755;BME280;35061;47.664;9.166;2023-12-29T08:39:20;101828.92;;;7.60;100.00
18755;BME280;35061;47.664;9.166;2023-12-29T08:41:48;101840.92;;;7.68;100.00
18755;BME280;35061;47.664;9.166;2023-12-29T08:44:19;101835.46;;;7.74;100.00
18755;BME280;35061;47.664;9.166;2023-12-29T08:46:47;101841.45;;;7.79;100.00
18755;BME280;35061;47.664;9.166;2023-12-29T08:49:15;101838.48;;;7.83;100.00
18755;BME280;35061;47.664;9.166;2023-12-29T08:51:44;101830.66;;;7.87;100.00
18755;BME280;35061;47.664;9.166;2023-12-29T08:54:13;101831.34;;;7.91;100.00
18755;BME280;35061;47.664;9.166;2023-12-29T08:56:41;101823.95;;;7.94;100.00
18755;BME280;35061;47.664;9.166;2023-12-29T08:59:09;101833.66;;;7.96;100.00
18755;BME280;35061;47.664;9.166;2023-12-29T09:01:37;101830.33;;;7.98;100.00
18755;BME280;35061;47.664;9.166;2023-12-29T09:04:06;101830.69;;;8.00;100.00
18755;BME280;35061;47.664;9.166;2023-12-29T09:06:34;101841.55;;;8.05;100.00
18755;BME280;35061;47.664;9.166;2023-12-29T09:09:02;101841.80;;;8.11;100.00
18755;BME280;35061;47.664;9.166;2023-12-29T09:11:30;101834.74;;;8.16;100.00
18755;BME280;35061;47.664;9.166;2023-12-29T09:13:58;101830.88;;;8.22;100.00
18755;BME280;35061;47.664;9.166;2023-12-29T09:16:26;101824.61;;;8.28;100.00
18755;BME280;35061;47.664;9.166;2023-12-29T09:18:54;101817.31;;;8.40;100.00
18755;BME280;35061;47.664;9.166;2023-12-29T09:21:22;101819.96;;;8.47;100.00
18755;BME280;35061;47.664;9.166;2023-12-29T09:23:50;101826.30;;;8.55;100.00
18755;BME280;35061;47.664;9.166;2023-12-29T09:26:19;101827.68;;;8.63;100.00
18755;BME280;35061;47.664;9.166;2023-12-29T09:28:47;101837.27;;;8.69;100.00
18755;BME280;35061;47.664;9.166;2023-12-29T09:31:15;101837.03;;;8.76;100.00
18755;BME280;35061;47.664;9.166;2023-12-29T09:33:43;101835.70;;;8.81;100.00
18755;BME280;35061;47.664;9.166;2023-12-29T09:36:11;101840.80;;;8.86;100.00
18755;BME280;35061;47.664;9.166;2023-12-29T09:38:39;101840.70;;;8.90;100.00
18755;BME280;35061;47.664;9.166;2023-12-29T09:41:11;101858.88;;;8.96;100.00
18755;BME280;35061;47.664;9.166;2023-12-29T09:43:41;101837.63;;;8.97;100.00
18755;BME280;35061;47.664;9.166;2023-12-29T09:46:16;101846.42;;;9.03;100.00
18755;BME280;35061;47.664;9.166;2023-12-29T09:48:46;101832.03;;;9.06;100.00
18755;BME280;35061;47.664;9.166;2023-12-29T09:51:15;101827.91;;;9.07;100.00
18755;BME280;35061;47.664;9.166;2023-12-29T09:53:44;101832.69;;;9.11;100.00
18755;BME280;35061;47.664;9.166;2023-12-29T09:56:12;101825.72;;;9.12;100.00
18755;BME280;35061;47.664;9.166;2023-12-29T09:58:42;101844.82;;;9.15;100.00
18755;BME280;35061;47.664;9.166;2023-12-29T10:01:13;101841.05;;;9.18;100.00
18755;BME280;35061;47.664;9.166;2023-12-29T10:03:42;101843.90;;;9.18;99.37
18755;BME280;35061;47.664;9.166;2023-12-29T10:06:13;101838.18;;;9.18;99.01
18755;BME280;35061;47.664;9.166;2023-12-29T10:08:45;101834.88;;;9.19;98.81
18755;BME280;35061;47.664;9.166;2023-12-29T10:11:16;101832.69;;;9.24;98.96
18755;BME280;35061;47.664;9.166;2023-12-29T10:13:47;101826.54;;;9.25;99.04
18755;BME280;35061;47.664;9.166;2023-12-29T10:21:44;101813.00;;;9.39;98.55
18755;BME280;35061;47.664;9.166;2023-12-29T10:24:18;101803.48;;;9.42;98.77
18755;BME280;35061;47.664;9.166;2023-12-29T10:26:47;101808.65;;;9.47;97.77
18755;BME280;35061;47.664;9.166;2023-12-29T10:29:17;101796.26;;;9.50;98.08
18755;BME280;35061;47.664;9.166;2023-12-29T10:31:48;101796.95;;;9.54;98.29
18755;BME280;35061;47.664;9.166;2023-12-29T10:34:21;101791.77;;;9.62;98.27
18755;BME280;35061;47.664;9.166;2023-12-29T10:37:00;101783.41;;;9.68;98.07
18755;BME280;35061;47.664;9.166;2023-12-29T10:39:31;101784.38;;;9.74;98.06
18755;BME280;35061;47.664;9.166;2023-12-29T10:42:07;101784.59;;;9.80;97.57
18755;BME280;35061;47.664;9.166;2023-12-29T10:44:37;101769.70;;;9.85;97.31
18755;BME280;35061;47.664;9.166;2023-12-29T10:47:09;101770.23;;;9.93;97.44
18755;BME280;35061;47.664;9.166;2023-12-29T10:49:39;101770.09;;;9.96;96.76
18755;BME280;35061;47.664;9.166;2023-12-29T10:52:15;101766.96;;;10.03;96.72
18755;BME280;35061;47.664;9.166;2023-12-29T10:54:44;101766.04;;;10.07;96.27
18755;BME280;35061;47.664;9.166;2023-12-29T10:57:12;101771.63;;;10.10;94.51
18755;BME280;35061;47.664;9.166;2023-12-29T10:59:41;101758.29;;;10.16;94.28
18755;BME280;35061;47.664;9.166;2023-12-29T11:02:13;101760.58;;;10.22;94.85
18755;BME280;35061;47.664;9.166;2023-12-29T11:04:43;101754.53;;;10.29;95.09
18755;BME280;35061;47.664;9.166;2023-12-29T11:07:12;101748.22;;;10.34;95.00
18755;BME280;35061;47.664;9.166;2023-12-29T11:09:40;101745.21;;;10.38;94.00
18755;BME280;35061;47.664;9.166;2023-12-29T11:12:09;101749.56;;;10.42;94.50
18755;BME280;35061;47.664;9.166;2023-12-29T11:14:37;101750.34;;;10.43;93.42
18755;BME280;35061;47.664;9.166;2023-12-29T11:17:10;101751.16;;;10.43;93.13
18755;BME280;35061;47.664;9.166;2023-12-29T11:19:40;101748.32;;;10.43;91.96
18755;BME280;35061;47.664;9.166;2023-12-29T11:22:09;101743.02;;;10.42;91.78
18755;BME280;35061;47.664;9.166;2023-12-29T11:24:38;101744.16;;;10.44;92.36
18755;BME280;35061;47.664;9.166;2023-12-29T11:27:10;101742.89;;;10.45;91.94
18755;BME280;35061;47.664;9.166;2023-12-29T11:29:41;101743.55;;;10.50;92.45
18755;BME280;35061;47.664;9.166;2023-12-29T11:32:18;101733.67;;;10.51;91.49
18755;BME280;35061;47.664;9.166;2023-12-29T11:34:53;101738.48;;;10.54;90.41
18755;BME280;35061;47.664;9.166;2023-12-29T11:37:41;101723.66;;;10.55;90.82
18755;BME280;35061;47.664;9.166;2023-12-29T11:40:30;101734.39;;;10.64;91.00
18755;BME280;35061;47.664;9.166;2023-12-29T11:43:02;101717.52;;;10.66;90.25
18755;BME280;35061;47.664;9.166;2023-12-29T11:45:33;101725.49;;;10.71;90.14
18755;BME280;35061;47.664;9.166;2023-12-29T11:48:04;101724.55;;;10.74;90.46
18755;BME280;35061;47.664;9.166;2023-12-29T11:50:39;101729.32;;;10.78;90.18
18755;BME280;35061;47.664;9.166;2023-12-29T11:53:08;101720.72;;;10.78;88.30
18755;BME280;35061;47.664;9.166;2023-12-29T11:55:38;101709.27;;;10.78;89.00
18755;BME280;35061;47.664;9.166;2023-12-29T11:58:27;101708.00;;;10.79;89.05
18755;BME280;35061;47.664;9.166;2023-12-29T12:00:56;101691.95;;;10.81;88.96
18755;BME280;35061;47.664;9.166;2023-12-29T12:03:26;101690.99;;;10.84;89.64
18755;BME280;35061;47.664;9.166;2023-12-29T12:05:55;101687.66;;;10.86;89.05
18755;BME280;35061;47.664;9.166;2023-12-29T12:08:36;101678.24;;;10.85;88.40
18755;BME280;35061;47.664;9.166;2023-12-29T12:13:57;101670.46;;;10.86;88.30
18755;BME280;35061;47.664;9.166;2023-12-29T12:16:47;101666.80;;;10.85;88.27
18755;BME280;35061;47.664;9.166;2023-12-29T12:19:16;101667.58;;;10.86;88.25
18755;BME280;35061;47.664;9.166;2023-12-29T12:21:47;101667.29;;;10.84;88.00
18755;BME280;35061;47.664;9.166;2023-12-29T12:24:20;101652.96;;;10.84;88.41
18755;BME280;35061;47.664;9.166;2023-12-29T12:26:51;101663.46;;;10.87;88.50
18755;BME280;35061;47.664;9.166;2023-12-29T12:29:19;101654.37;;;10.88;88.15
18755;BME280;35061;47.664;9.166;2023-12-29T12:31:57;101648.48;;;10.92;88.37
18755;BME280;35061;47.664;9.166;2023-12-29T12:34:25;101649.59;;;10.95;87.19
18755;BME280;35061;47.664;9.166;2023-12-29T12:36:54;101659.63;;;10.99;87.63
18755;BME280;35061;47.664;9.166;2023-12-29T12:39:38;101656.17;;;11.05;87.62
18755;BME280;35061;47.664;9.166;2023-12-29T12:42:07;101654.24;;;11.11;86.98
18755;BME280;35061;47.664;9.166;2023-12-29T12:44:40;101659.02;;;11.14;87.02
18755;BME280;35061;47.664;9.166;2023-12-29T12:47:15;101651.52;;;11.16;86.30
18755;BME280;35061;47.664;9.166;2023-12-29T12:49:46;101645.64;;;11.20;85.83
18755;BME280;35061;47.664;9.166;2023-12-29T12:52:14;101655.35;;;11.23;86.03
18755;BME280;35061;47.664;9.166;2023-12-29T12:54:43;101646.62;;;11.26;85.92
18755;BME280;35061;47.664;9.166;2023-12-29T12:57:11;101657.58;;;11.28;86.06
18755;BME280;35061;47.664;9.166;2023-12-29T12:59:40;101661.73;;;11.27;84.10
18755;BME280;35061;47.664;9.166;2023-12-29T13:02:09;101655.22;;;11.26;85.00
18755;BME280;35061;47.664;9.166;2023-12-29T13:04:40;101661.73;;;11.27;84.98
18755;BME280;35061;47.664;9.166;2023-12-29T13:07:10;101653.95;;;11.27;84.44
18755;BME280;35061;47.664;9.166;2023-12-29T13:09:38;101657.91;;;11.30;84.94
18755;BME280;35061;47.664;9.166;2023-12-29T13:12:10;101657.12;;;11.29;84.41
18755;BME280;35061;47.664;9.166;2023-12-29T13:14:39;101655.84;;;11.30;84.26